createdAt,value
2023-02-28T00:01:25.551Z,20.80
2023-02-28T00:05:02.077Z,18.40
2023-02-28T00:08:26.040Z,14.70
2023-02-28T00:11:50.016Z,14.20
2023-02-28T00:15:14.376Z,14.40
2023-02-28T00:18:38.860Z,20.20
2023-02-28T00:22:02.711Z,16.00
2023-02-28T00:25:28.134Z,13.40
2023-02-28T00:28:54.664Z,15.40
2023-02-28T00:32:20.878Z,13.50
2023-02-28T00:35:47.404Z,13.20
2023-02-28T00:39:11.462Z,19.10
2023-02-28T00:42:36.569Z,19.80
2023-02-28T00:46:02.243Z,16.30
2023-02-28T00:49:28.831Z,16.00
2023-02-28T00:52:52.814Z,13.80
2023-02-28T00:56:17.825Z,12.90
2023-02-28T00:59:41.804Z,16.00
2023-02-28T01:03:05.783Z,13.30
2023-02-28T01:06:29.932Z,15.00
2023-02-28T01:09:53.792Z,12.60
2023-02-28T01:13:18.450Z,18.10
2023-02-28T01:16:42.442Z,15.70
2023-02-28T01:20:07.012Z,14.00
2023-02-28T01:23:30.842Z,17.40
2023-02-28T01:26:54.654Z,13.10
2023-02-28T01:30:19.049Z,14.80
2023-02-28T01:33:44.593Z,22.60
2023-02-28T01:37:08.512Z,16.90
2023-02-28T01:40:32.530Z,21.60
2023-02-28T01:44:05.304Z,17.20
2023-02-28T01:47:41.014Z,21.00
2023-02-28T01:51:13.579Z,20.80
2023-02-28T01:54:37.879Z,20.20
2023-02-28T01:58:06.356Z,22.20
2023-02-28T02:01:32.802Z,18.20
2023-02-28T02:05:07.128Z,23.00
2023-02-28T02:08:31.623Z,25.80
2023-02-28T02:11:57.642Z,26.10
2023-02-28T02:15:50.001Z,28.20
2023-02-28T02:19:28.573Z,19.50
2023-02-28T02:23:17.945Z,21.60
2023-02-28T02:27:00.151Z,17.60
2023-02-28T02:31:08.840Z,26.40
2023-02-28T02:34:54.111Z,26.90
2023-02-28T02:38:36.414Z,27.40
2023-02-28T02:42:05.199Z,20.90
2023-02-28T02:45:37.935Z,21.10
2023-02-28T02:49:06.459Z,19.40
2023-02-28T02:52:37.773Z,24.00
2023-02-28T02:56:04.099Z,23.70
2023-02-28T02:59:30.201Z,21.00
2023-02-28T03:02:57.005Z,21.90
2023-02-28T03:06:21.355Z,25.50
2023-02-28T03:09:54.604Z,21.10
2023-02-28T03:13:36.929Z,25.50
2023-02-28T03:17:20.653Z,28.70
2023-02-28T03:21:08.760Z,25.20
2023-02-28T03:24:47.723Z,27.00
2023-02-28T03:28:15.837Z,24.70
2023-02-28T03:31:44.027Z,28.80
2023-02-28T03:35:23.248Z,24.30
2023-02-28T03:38:59.742Z,24.50
2023-02-28T03:42:27.973Z,23.90
2023-02-28T03:45:53.614Z,23.30
2023-02-28T03:53:13.610Z,28.10
2023-02-28T03:56:45.654Z,26.00
2023-02-28T04:00:45.783Z,29.80
2023-02-28T04:04:14.375Z,32.50
2023-02-28T04:07:39.421Z,27.40
2023-02-28T04:11:08.893Z,27.00
2023-02-28T04:14:32.837Z,37.50
2023-02-28T04:17:56.814Z,29.20
2023-02-28T04:21:23.196Z,32.80
2023-02-28T04:24:47.128Z,37.10
2023-02-28T04:28:14.131Z,29.50
2023-02-28T04:31:38.176Z,32.10
2023-02-28T04:35:04.366Z,33.20
2023-02-28T04:38:28.225Z,38.40
2023-02-28T04:41:52.647Z,37.60
2023-02-28T04:45:16.610Z,35.80
2023-02-28T04:48:41.701Z,30.30
2023-02-28T04:52:06.429Z,36.80
2023-02-28T04:55:30.230Z,28.90
2023-02-28T04:58:54.242Z,29.30
2023-02-28T05:02:18.221Z,31.10
2023-02-28T05:05:42.088Z,34.00
2023-02-28T05:09:05.927Z,30.80
2023-02-28T05:12:29.862Z,43.10
2023-02-28T05:15:53.771Z,36.70
2023-02-28T05:19:17.765Z,35.30
2023-02-28T05:22:43.156Z,39.20
2023-02-28T05:26:07.101Z,65.10
2023-02-28T05:29:31.012Z,70.10
2023-02-28T05:32:54.923Z,42.10
2023-02-28T05:36:18.777Z,48.20
2023-02-28T05:39:42.695Z,37.30
2023-02-28T05:43:06.636Z,46.80
2023-02-28T05:46:30.536Z,38.70
2023-02-28T05:49:54.399Z,36.40
2023-02-28T05:53:18.444Z,39.10
2023-02-28T05:56:45.147Z,29.20
2023-02-28T06:00:12.551Z,30.00
2023-02-28T06:03:36.797Z,31.60
2023-02-28T06:07:00.865Z,37.50
2023-02-28T06:10:25.026Z,30.20
2023-02-28T06:13:49.845Z,31.10
2023-02-28T06:17:13.627Z,28.10
2023-02-28T06:20:37.602Z,30.40
2023-02-28T06:24:01.798Z,37.60
2023-02-28T06:27:25.947Z,32.80
2023-02-28T06:30:50.114Z,29.20
2023-02-28T06:34:15.956Z,30.40
2023-02-28T06:41:07.144Z,28.60
2023-02-28T06:44:36.209Z,30.60
2023-02-28T06:48:01.309Z,35.00
2023-02-28T06:51:25.522Z,29.30
2023-02-28T06:55:00.880Z,29.60
2023-02-28T06:58:24.835Z,24.20
2023-02-28T07:01:49.315Z,23.30
2023-02-28T07:05:13.331Z,20.50
2023-02-28T07:08:38.036Z,23.40
2023-02-28T07:12:02.059Z,25.40
2023-02-28T07:15:26.295Z,22.00
2023-02-28T07:18:50.522Z,24.10
2023-02-28T07:22:15.956Z,18.90
2023-02-28T07:25:40.504Z,20.20
2023-02-28T07:29:04.559Z,22.60
2023-02-28T07:32:28.426Z,21.70
2023-02-28T07:35:52.532Z,21.10
2023-02-28T07:39:16.418Z,25.10
2023-02-28T07:42:41.454Z,24.40
2023-02-28T07:46:08.798Z,22.90
2023-02-28T07:49:33.198Z,22.30
2023-02-28T07:52:57.273Z,22.70
2023-02-28T07:56:21.152Z,26.00
2023-02-28T07:59:46.177Z,22.80
2023-02-28T08:03:15.102Z,21.40
2023-02-28T08:06:39.139Z,18.30
2023-02-28T08:10:03.027Z,21.30
2023-02-28T08:13:28.342Z,18.80
2023-02-28T08:16:52.305Z,20.90
2023-02-28T08:20:16.276Z,19.50
2023-02-28T08:23:40.257Z,22.70
2023-02-28T08:27:04.116Z,21.00
2023-02-28T08:30:28.032Z,19.90
2023-02-28T08:33:54.241Z,19.50
2023-02-28T08:37:18.248Z,25.20
2023-02-28T08:40:42.455Z,22.50
2023-02-28T08:44:07.205Z,20.30
2023-02-28T08:47:31.323Z,18.90
2023-02-28T08:51:27.412Z,19.00
2023-02-28T08:54:51.740Z,17.80
2023-02-28T08:58:16.709Z,20.90
2023-02-28T09:01:42.389Z,15.00
2023-02-28T09:05:07.169Z,24.80
2023-02-28T09:08:32.803Z,21.00
2023-02-28T09:15:21.654Z,20.00
2023-02-28T09:18:46.471Z,21.80
2023-02-28T09:22:12.769Z,22.40
2023-02-28T09:25:37.204Z,19.60
2023-02-28T09:29:01.007Z,23.00
2023-02-28T09:32:25.004Z,21.50
2023-02-28T09:35:50.540Z,23.20
2023-02-28T09:39:16.515Z,19.20
2023-02-28T09:42:41.023Z,19.60
2023-02-28T09:46:16.428Z,19.80
2023-02-28T09:49:48.074Z,22.40
2023-02-28T09:53:22.130Z,19.10
2023-02-28T09:56:52.921Z,25.30
2023-02-28T10:00:25.677Z,18.10
2023-02-28T10:04:01.214Z,24.60
2023-02-28T10:07:52.848Z,21.70
2023-02-28T10:11:21.692Z,22.00
2023-02-28T10:14:49.849Z,19.90
2023-02-28T10:18:21.949Z,21.90
2023-02-28T10:21:57.097Z,26.50
2023-02-28T10:25:27.079Z,24.10
2023-02-28T10:28:55.364Z,23.60
2023-02-28T10:32:25.872Z,21.80
2023-02-28T10:35:50.297Z,25.00
2023-02-28T10:39:41.537Z,24.70
2023-02-28T10:43:08.344Z,22.40
2023-02-28T10:46:35.933Z,23.30
2023-02-28T10:50:00.196Z,23.00
2023-02-28T10:53:24.617Z,22.70
2023-02-28T10:57:09.613Z,23.60
2023-02-28T11:00:36.964Z,24.30
2023-02-28T11:04:04.450Z,22.90
2023-02-28T11:07:37.256Z,22.60
2023-02-28T11:11:08.779Z,27.20
2023-02-28T11:14:51.336Z,27.50
2023-02-28T11:18:15.230Z,22.70
2023-02-28T11:21:41.137Z,23.80
2023-02-28T11:28:39.190Z,24.40
2023-02-28T11:32:15.496Z,26.30
2023-02-28T11:35:41.701Z,24.00
2023-02-28T11:39:13.784Z,23.50
2023-02-28T11:42:45.787Z,25.80
2023-02-28T11:46:31.535Z,22.70
2023-02-28T11:50:20.476Z,25.90
2023-02-28T11:54:03.386Z,22.90
2023-02-28T11:57:33.148Z,24.00
2023-02-28T12:01:00.209Z,24.00
2023-02-28T12:04:56.952Z,23.80
2023-02-28T12:12:03.830Z,25.70
2023-02-28T12:15:39.780Z,24.30
2023-02-28T12:19:09.190Z,23.90
2023-02-28T12:22:40.117Z,27.80
2023-02-28T12:26:22.459Z,23.80
2023-02-28T12:29:56.302Z,24.80
2023-02-28T12:33:28.466Z,25.10
2023-02-28T12:37:01.849Z,25.00
2023-02-28T12:40:31.444Z,22.60
2023-02-28T12:44:02.707Z,22.70
2023-02-28T12:47:26.623Z,20.60
2023-02-28T12:50:50.941Z,24.70
2023-02-28T12:54:30.877Z,24.80
2023-02-28T12:58:12.858Z,23.70
2023-02-28T13:01:48.979Z,20.10
2023-02-28T13:09:03.141Z,21.20
2023-02-28T13:12:27.991Z,22.80
2023-02-28T13:16:12.034Z,24.00
2023-02-28T13:19:40.607Z,24.50
2023-02-28T13:23:06.452Z,22.90
2023-02-28T13:26:33.520Z,24.80
2023-02-28T13:29:57.378Z,23.70
2023-02-28T13:33:26.064Z,21.10
2023-02-28T13:36:50.160Z,20.50
2023-02-28T13:40:38.237Z,22.00
2023-02-28T13:44:18.650Z,22.80
2023-02-28T13:47:46.158Z,26.60
2023-02-28T13:51:41.767Z,21.70
2023-02-28T13:55:29.288Z,25.20
2023-02-28T13:59:16.094Z,20.40
2023-02-28T14:02:54.882Z,22.30
2023-02-28T14:06:28.523Z,24.60
2023-02-28T14:10:06.617Z,22.20
2023-02-28T14:13:45.785Z,23.90
2023-02-28T14:17:16.326Z,22.60
2023-02-28T14:20:43.041Z,24.50
2023-02-28T14:24:31.843Z,22.10
2023-02-28T14:28:14.973Z,20.30
2023-02-28T14:32:09.090Z,22.50
2023-02-28T14:36:16.876Z,22.10
2023-02-28T14:40:15.802Z,20.20
2023-02-28T14:44:16.773Z,21.00
2023-02-28T14:48:16.841Z,22.00
2023-02-28T14:52:37.788Z,22.50
2023-02-28T14:56:44.860Z,25.70
2023-02-28T15:00:47.747Z,23.00
2023-02-28T15:04:45.806Z,28.90
2023-02-28T15:08:43.733Z,24.70
2023-02-28T15:12:41.740Z,26.90
2023-02-28T15:16:52.791Z,26.20
2023-02-28T15:20:54.908Z,27.80
2023-02-28T15:25:00.778Z,27.60
2023-02-28T15:28:59.804Z,24.80
2023-02-28T15:32:57.766Z,29.30
2023-02-28T15:36:56.783Z,25.50
2023-02-28T15:41:03.697Z,28.80
2023-02-28T15:45:01.742Z,29.90
2023-02-28T15:49:06.793Z,33.70
2023-02-28T15:53:05.771Z,32.80
2023-02-28T15:57:07.661Z,34.90
2023-02-28T16:01:20.389Z,39.50
2023-02-28T16:05:42.741Z,35.10
2023-02-28T16:09:40.726Z,39.10
2023-02-28T16:13:38.699Z,41.10
2023-02-28T16:17:41.796Z,44.70
2023-02-28T16:21:40.718Z,40.80
2023-02-28T16:25:44.671Z,43.10
2023-02-28T16:29:47.629Z,42.30
2023-02-28T16:33:48.710Z,44.70
2023-02-28T16:37:46.816Z,54.70
2023-02-28T16:41:44.683Z,67.80
2023-02-28T16:45:45.738Z,89.90
2023-02-28T16:49:43.758Z,86.30
2023-02-28T16:53:41.581Z,90.20
2023-02-28T16:57:39.617Z,80.60
2023-02-28T17:01:37.781Z,77.60
2023-02-28T17:05:36.604Z,68.60
2023-02-28T17:09:43.031Z,81.60
2023-02-28T17:13:41.560Z,76.60
2023-02-28T17:17:39.606Z,75.90
2023-02-28T17:21:37.593Z,109.80
2023-02-28T17:25:36.625Z,101.20
2023-02-28T17:29:37.845Z,147.30
2023-02-28T17:33:35.563Z,232.70
2023-02-28T17:37:33.660Z,192.00
2023-02-28T17:41:31.611Z,184.80
2023-02-28T17:45:30.616Z,190.20
2023-02-28T17:49:30.763Z,202.60
2023-02-28T17:53:30.596Z,231.50
2023-02-28T17:57:31.521Z,211.60
2023-02-28T18:01:29.589Z,151.50
2023-02-28T18:05:27.457Z,175.60
2023-02-28T18:09:25.525Z,186.30
2023-02-28T18:13:23.466Z,201.10
2023-02-28T18:17:21.538Z,188.00
2023-02-28T18:21:20.665Z,189.70
2023-02-28T18:25:23.478Z,237.30
2023-02-28T18:29:22.450Z,253.00
2023-02-28T18:33:20.435Z,272.50
2023-02-28T18:37:18.500Z,272.20
2023-02-28T18:41:19.518Z,271.50
2023-02-28T18:45:17.444Z,252.10
2023-02-28T18:49:15.444Z,234.60
2023-02-28T18:53:13.457Z,270.90
2023-02-28T18:57:13.581Z,278.20
2023-02-28T19:01:11.578Z,266.10
2023-02-28T19:05:09.440Z,295.60
2023-02-28T19:09:16.527Z,304.60
2023-02-28T19:13:16.563Z,291.50
2023-02-28T19:17:14.448Z,260.10
2023-02-28T19:21:14.460Z,260.00
2023-02-28T19:25:12.442Z,293.90
2023-02-28T19:29:10.524Z,294.90
2023-02-28T19:33:08.383Z,320.60
2023-02-28T19:37:06.474Z,340.40
2023-02-28T19:41:04.356Z,322.10
2023-02-28T19:45:02.441Z,327.70
2023-02-28T19:49:00.341Z,298.50
2023-02-28T19:53:00.392Z,314.70
2023-02-28T19:56:58.425Z,284.90
2023-02-28T20:00:56.441Z,277.50
2023-02-28T20:04:55.402Z,288.30
2023-02-28T20:08:54.413Z,269.20
2023-02-28T20:12:52.386Z,288.30
2023-02-28T20:16:51.579Z,314.40
2023-02-28T20:20:49.301Z,312.50
2023-02-28T20:24:47.306Z,306.80
2023-02-28T20:28:45.339Z,339.30
2023-02-28T20:32:45.406Z,306.10
2023-02-28T20:36:43.267Z,297.60
2023-02-28T20:40:41.299Z,284.90
2023-02-28T20:44:39.298Z,290.90
2023-02-28T20:48:37.308Z,294.40
2023-02-28T20:52:36.363Z,280.60
2023-02-28T20:56:36.327Z,274.20
2023-02-28T21:00:34.249Z,294.30
2023-02-28T21:04:35.266Z,307.90
2023-02-28T21:08:33.315Z,327.30
2023-02-28T21:12:31.322Z,325.00
2023-02-28T21:16:32.416Z,331.10
2023-02-28T21:20:30.220Z,319.90
2023-02-28T21:24:31.233Z,321.20
2023-02-28T21:28:29.229Z,318.90
2023-02-28T21:32:27.191Z,301.40
2023-02-28T21:36:28.414Z,304.20
2023-02-28T21:40:26.156Z,326.50
2023-02-28T21:44:25.210Z,288.30
2023-02-28T21:48:23.123Z,288.30
2023-02-28T21:52:21.217Z,324.10
2023-02-28T21:56:22.181Z,363.90
2023-02-28T22:00:20.176Z,403.20
2023-02-28T22:04:28.145Z,444.30
2023-02-28T22:08:26.132Z,406.80
2023-02-28T22:12:24.162Z,408.80
2023-02-28T22:16:26.511Z,385.70
2023-02-28T22:20:27.232Z,385.40
2023-02-28T22:24:27.190Z,384.50
2023-02-28T22:28:25.095Z,358.00
2023-02-28T22:32:23.212Z,354.20
2023-02-28T22:36:22.093Z,342.90
2023-02-28T22:40:20.115Z,313.70
2023-02-28T22:44:19.123Z,373.50
2023-02-28T22:48:18.149Z,393.00
2023-02-28T22:52:16.185Z,374.60
2023-02-28T22:56:15.069Z,380.00
2023-02-28T23:00:13.025Z,332.10
2023-02-28T23:04:18.091Z,309.30
2023-02-28T23:08:16.036Z,277.10
2023-02-28T23:12:14.097Z,265.50
2023-02-28T23:16:13.043Z,218.80
2023-02-28T23:20:11.082Z,217.20
2023-02-28T23:24:08.994Z,197.60
2023-02-28T23:28:07.067Z,198.70
2023-02-28T23:32:05.049Z,165.90
2023-02-28T23:36:03.041Z,202.20
2023-02-28T23:40:01.084Z,207.30
2023-02-28T23:43:58.976Z,176.90
2023-02-28T23:47:56.971Z,160.10
2023-02-28T23:51:55.943Z,168.60
2023-02-28T23:55:59.950Z,163.90
2023-02-28T23:59:57.969Z,174.00
